Time;durP1;ratioP1;P1;durP2;ratioP2;P2;SDS_P1;SDS_P2;PMS_P1;PMS_P2;Temp;Humidity;BMP_temperature;BMP_pressure;BME280_temperature;BME280_humidity;BME280_pressure;Samples;Min_cycle;Max_cycle;Signal;HPM_P1;HPM_P2
2023/08/28 00:00:19;;;;;;;4.70;2.58;;;;;;;13.02;100.00;101221.00;6093898;19;20098;-69
2023/08/28 00:02:25;;;;;;;6.88;2.25;;;;;;;13.01;100.00;101227.22;6098505;19;20039;-71
2023/08/28 00:04:30;;;;;;;3.65;2.47;;;;;;;13.01;100.00;101227.22;6097433;19;20442;-69
2023/08/28 00:06:35;;;;;;;5.35;2.45;;;;;;;12.99;100.00;101221.16;6096511;19;20877;-69
2023/08/28 00:08:40;;;;;;;4.35;2.35;;;;;;;12.96;100.00;101229.22;6094461;19;20015;-70
2023/08/28 00:10:46;;;;;;;4.05;2.20;;;;;;;12.98;100.00;101227.38;6091901;19;20010;-69
2023/08/28 00:12:51;;;;;;;6.30;2.83;;;;;;;13.01;100.00;101224.59;6094657;19;20065;-69
2023/08/28 00:14:59;;;;;;;4.47;2.42;;;;;;;13.04;100.00;101215.69;6092756;19;20014;-70
2023/08/28 00:17:04;;;;;;;4.07;2.40;;;;;;;13.01;100.00;101221.94;6090907;19;19999;-69
2023/08/28 00:19:10;;;;;;;4.47;2.30;;;;;;;13.03;100.00;101225.34;6090706;19;20011;-70
2023/08/28 00:21:12;;;;;;;3.45;2.20;;;;;;;13.03;100.00;101220.06;6095057;19;20031;-71
2023/08/28 00:23:17;;;;;;;4.07;2.65;;;;;;;13.03;100.00;101220.06;6093164;19;20014;-69
2023/08/28 00:25:22;;;;;;;4.30;2.33;;;;;;;13.03;100.00;101219.22;6090659;19;20124;-71
2023/08/28 00:27:31;;;;;;;5.90;2.88;;;;;;;13.01;100.00;101218.47;6098372;19;20007;-69
2023/08/28 00:29:35;;;;;;;3.22;2.40;;;;;;;13.02;100.00;101217.53;6098050;19;20010;-69
2023/08/28 00:31:43;;;;;;;6.68;2.60;;;;;;;13.04;100.00;101221.81;6096381;19;20507;-69
2023/08/28 00:33:48;;;;;;;3.95;2.78;;;;;;;13.01;100.00;101221.94;6098215;19;20010;-69
2023/08/28 00:35:53;;;;;;;3.97;2.38;;;;;;;13.00;100.00;101225.50;6097095;19;20027;-69
2023/08/28 00:37:59;;;;;;;3.20;2.38;;;;;;;13.01;100.00;101227.22;6095605;19;20406;-69
2023/08/28 00:40:04;;;;;;;4.50;2.38;;;;;;;13.00;100.00;101222.84;6098921;19;20360;-69
2023/08/28 00:42:09;;;;;;;4.82;2.50;;;;;;;13.00;100.00;101222.00;6096207;19;20090;-70
2023/08/28 00:44:14;;;;;;;3.95;2.35;;;;;;;12.96;100.00;101222.16;6095479;19;20010;-69
2023/08/28 00:46:19;;;;;;;4.65;2.42;;;;;;;12.93;100.00;101224.06;6097102;19;20378;-69
2023/08/28 00:48:28;;;;;;;5.35;2.63;;;;;;;12.90;100.00;101222.44;6098478;19;20010;-69
2023/08/28 00:50:31;;;;;;;3.78;2.08;;;;;;;12.88;100.00;101218.16;6093998;19;20003;-69
2023/08/28 00:52:36;;;;;;;4.32;2.50;;;;;;;12.86;100.00;101219.97;6093091;19;20067;-71
2023/08/28 00:54:42;;;;;;;5.60;2.60;;;;;;;12.83;100.00;101214.84;6097450;19;20018;-71
2023/08/28 00:56:48;;;;;;;2.85;2.28;;;;;;;12.76;100.00;101211.59;6096169;19;20014;-70
2023/08/28 00:58:53;;;;;;;4.72;2.38;;;;;;;12.70;100.00;101207.47;6095396;19;20010;-70
2023/08/28 01:00:59;;;;;;;3.28;2.28;;;;;;;12.67;100.00;101204.97;6093215;19;20451;-70
2023/08/28 01:03:17;;;;;;;3.47;2.13;;;;;;;12.63;100.00;101205.16;6079302;19;20010;-69
2023/08/28 01:05:31;;;;;;;4.80;2.50;;;;;;;12.59;100.00;101214.13;6094454;19;20342;-69
2023/08/28 01:07:43;;;;;;;6.90;2.60;;;;;;;12.58;100.00;101217.69;6094795;19;20010;-71
2023/08/28 01:09:59;;;;;;;3.65;2.33;;;;;;;12.54;100.00;101222.22;6092501;19;20006;-71
2023/08/28 01:12:14;;;;;;;4.10;2.20;;;;;;;12.52;100.00;101219.66;6086973;19;20015;-70
2023/08/28 01:14:21;;;;;;;4.20;2.50;;;;;;;12.50;100.00;101224.13;6093943;19;20006;-73
2023/08/28 01:16:29;;;;;;;3.08;2.20;;;;;;;12.51;100.00;101225.84;6095993;19;20356;-74
2023/08/28 01:18:37;;;;;;;5.95;2.80;;;;;;;12.47;100.00;101213.72;6095588;19;20009;-74
2023/08/28 01:20:47;;;;;;;5.07;2.40;;;;;;;12.46;100.00;101213.78;6087929;19;20011;-73
2023/08/28 01:23:28;;;;;;;4.25;2.47;;;;;;;12.42;100.00;101209.56;6094176;19;20069;-76
2023/08/28 01:25:39;;;;;;;7.00;2.75;;;;;;;12.38;100.00;101210.63;6089174;19;20019;-74
2023/08/28 01:27:49;;;;;;;3.80;2.00;;;;;;;12.36;100.00;101207.19;6094830;19;20479;-74
2023/08/28 01:30:11;;;;;;;4.05;2.38;;;;;;;12.33;100.00;101204.69;6092542;19;20006;-73
2023/08/28 01:32:15;;;;;;;3.65;2.40;;;;;;;12.26;100.00;101199.66;6094702;19;20035;-74
2023/08/28 01:34:20;;;;;;;3.53;2.28;;;;;;;12.27;100.00;101208.44;6095411;19;20046;-73
2023/08/28 01:36:31;;;;;;;4.18;2.50;;;;;;;12.30;100.00;101203.03;6090904;19;20009;-74
2023/08/28 01:38:44;;;;;;;4.13;2.28;;;;;;;12.23;100.00;101202.44;6089868;19;20544;-74
2023/08/28 01:41:00;;;;;;;4.40;2.63;;;;;;;12.18;100.00;101201.75;6093338;19;20181;-74
2023/08/28 01:43:09;;;;;;;4.35;2.70;;;;;;;12.20;100.00;101192.03;6090919;19;20080;-73
2023/08/28 01:45:15;;;;;;;3.67;2.45;;;;;;;12.20;100.00;101194.66;6095870;19;20006;-72
2023/08/28 01:47:20;;;;;;;5.15;2.47;;;;;;;12.16;100.00;101195.69;6089815;19;20568;-73
2023/08/28 01:49:30;;;;;;;5.05;2.40;;;;;;;12.12;100.00;101191.50;6094842;19;20006;-73
2023/08/28 01:51:35;;;;;;;5.93;2.45;;;;;;;12.11;100.00;101187.13;6093584;19;20666;-73
2023/08/28 01:53:40;;;;;;;4.63;2.67;;;;;;;12.13;100.00;101190.56;6090647;19;20015;-72
2023/08/28 01:56:21;;;;;;;4.38;2.20;;;;;;;12.10;100.00;101195.94;6098100;19;20017;-73
2023/08/28 01:58:26;;;;;;;4.70;2.72;;;;;;;12.07;100.00;101207.47;6094888;19;20308;-72
2023/08/28 02:00:31;;;;;;;4.65;2.67;;;;;;;12.04;100.00;101199.69;6092799;19;20326;-73
2023/08/28 02:02:35;;;;;;;5.68;2.65;;;;;;;12.04;100.00;101207.59;6095097;19;20470;-75
2023/08/28 02:04:38;;;;;;;5.40;2.80;;;;;;;12.08;100.00;101218.84;6093995;19;20604;-74
2023/08/28 02:06:43;;;;;;;6.43;2.88;;;;;;;12.08;100.00;101211.84;6094693;19;20006;-75
2023/08/28 02:08:45;;;;;;;3.80;2.50;;;;;;;12.07;100.00;101206.63;6093540;19;21262;-73
2023/08/28 02:10:50;;;;;;;;;;;;;;;12.07;100.00;101218.00;6095184;19;20013;-72
2023/08/28 02:12:58;;;;;;;5.13;2.78;;;;;;;12.08;100.00;101209.22;6094401;19;19914;-74
2023/08/28 02:15:03;;;;;;;4.85;2.90;;;;;;;12.12;100.00;101209.94;6091334;19;20036;-73
2023/08/28 02:17:06;;;;;;;5.43;2.90;;;;;;;12.11;100.00;101200.28;6094305;19;20055;-75
2023/08/28 02:19:11;;;;;;;5.22;2.75;;;;;;;12.10;100.00;101206.50;6096860;19;20074;-74
2023/08/28 02:21:16;;;;;;;6.63;2.80;;;;;;;12.16;100.00;101202.75;6092691;19;20003;-74
2023/08/28 02:23:19;;;;;;;5.10;2.63;;;;;;;12.10;100.00;101201.22;6094930;19;20049;-73
2023/08/28 02:25:24;;;;;;;5.60;2.90;;;;;;;12.05;100.00;101198.78;6094210;19;20471;-75
2023/08/28 02:27:31;;;;;;;4.85;2.60;;;;;;;12.01;100.00;101189.28;6093101;19;20010;-69
2023/08/28 02:29:39;;;;;;;5.65;2.83;;;;;;;11.98;100.00;101176.25;6090406;19;20006;-70
2023/08/28 02:31:44;;;;;;;7.57;3.28;;;;;;;12.00;100.00;101176.19;6096345;19;20007;-69
2023/08/28 02:33:49;;;;;;;4.43;2.78;;;;;;;12.01;100.00;101176.13;6094168;19;20017;-69
2023/08/28 02:35:57;;;;;;;5.50;2.58;;;;;;;11.96;100.00;101172.81;6092716;19;20160;-71
2023/08/28 02:37:59;;;;;;;5.65;3.28;;;;;;;11.91;100.00;101160.75;6094437;19;20645;-70
2023/08/28 02:40:05;;;;;;;5.32;2.78;;;;;;;11.88;100.00;101166.16;6092800;19;19999;-69
2023/08/28 02:42:10;;;;;;;3.72;2.60;;;;;;;11.85;100.00;101156.56;6093633;19;20002;-69
2023/08/28 02:44:15;;;;;;;4.90;2.72;;;;;;;11.81;100.00;101162.88;6092710;19;20014;-69
2023/08/28 02:46:22;;;;;;;5.60;2.72;;;;;;;11.80;100.00;101171.69;6095312;19;20006;-69
2023/08/28 02:48:28;;;;;;;6.93;3.25;;;;;;;11.80;100.00;101177.81;6094884;19;20467;-70
2023/08/28 02:50:31;;;;;;;5.50;2.97;;;;;;;11.80;100.00;101177.81;6094060;19;20016;-69
2023/08/28 02:52:36;;;;;;;4.57;2.80;;;;;;;11.76;100.00;101176.22;6092082;19;20014;-69
2023/08/28 02:54:43;;;;;;;4.30;2.70;;;;;;;11.75;100.00;101179.78;6094273;19;20035;-70
2023/08/28 02:56:48;;;;;;;6.78;3.20;;;;;;;11.78;100.00;101176.16;6093663;19;20002;-69
2023/08/28 02:58:56;;;;;;;4.70;2.95;;;;;;;11.78;100.00;101168.28;6089104;19;20066;-71
2023/08/28 03:01:02;;;;;;;6.47;3.50;;;;;;;11.81;100.00;101173.41;6089203;19;20036;-69
2023/08/28 03:03:12;;;;;;;5.25;2.95;;;;;;;11.76;100.00;101170.94;6095921;19;20550;-69
2023/08/28 03:05:19;;;;;;;5.93;3.10;;;;;;;11.74;100.00;101169.28;6094377;19;20006;-70
2023/08/28 03:07:27;;;;;;;4.40;2.65;;;;;;;11.77;100.00;101156.88;6092700;19;20014;-70
2023/08/28 03:09:32;;;;;;;4.60;2.88;;;;;;;11.77;100.00;101163.91;6092965;19;20117;-69
2023/08/28 03:11:37;;;;;;;4.35;2.60;;;;;;;11.75;100.00;101163.13;6088745;19;20082;-69
2023/08/28 03:13:42;;;;;;;5.15;2.80;;;;;;;11.77;100.00;101162.16;6093839;19;20040;-69
2023/08/28 03:15:47;;;;;;;5.70;3.25;;;;;;;11.83;100.00;101166.31;6093874;19;20011;-70
2023/08/28 03:17:50;;;;;;;5.40;3.22;;;;;;;11.78;100.00;101178.81;6093847;19;20463;-69
2023/08/28 03:20:00;;;;;;;5.32;2.90;;;;;;;11.78;100.00;101176.16;6095086;19;20010;-69
2023/08/28 03:22:03;;;;;;;5.32;2.55;;;;;;;11.74;100.00;101185.97;6093208;19;20011;-69
2023/08/28 03:24:08;;;;;;;4.57;2.60;;;;;;;11.81;100.00;101179.53;6096278;19;20011;-69
2023/08/28 03:26:13;;;;;;;5.50;3.10;;;;;;;11.84;100.00;101187.28;6097080;19;20018;-70
2023/08/28 03:28:18;;;;;;;5.32;2.78;;;;;;;11.84;100.00;101187.28;6100076;19;20003;-70
2023/08/28 03:30:23;;;;;;;6.00;2.90;;;;;;;11.82;100.00;101194.41;6098321;19;20009;-70
2023/08/28 03:32:31;;;;;;;6.00;2.60;;;;;;;11.83;100.00;101192.63;6096830;19;20018;-68
2023/08/28 03:34:33;;;;;;;5.20;2.95;;;;;;;11.89;100.00;101196.84;6097241;19;20074;-70
2023/08/28 03:36:41;;;;;;;8.00;2.90;;;;;;;11.91;100.00;101198.47;6098992;19;20031;-70
2023/08/28 03:38:47;;;;;;;5.45;3.22;;;;;;;12.01;100.00;101196.34;6097162;19;20002;-68
2023/08/28 03:40:57;;;;;;;5.95;2.85;;;;;;;12.01;100.00;101197.19;6100298;19;20006;-68
2023/08/28 03:43:02;;;;;;;5.20;3.00;;;;;;;12.07;100.00;101196.09;6093095;19;20035;-73
2023/08/28 03:45:08;;;;;;;4.82;3.00;;;;;;;12.13;100.00;101200.25;6095969;19;20026;-73
2023/08/28 03:47:13;;;;;;;6.65;3.05;;;;;;;12.19;100.00;101206.13;6099687;19;20487;-73
2023/08/28 03:49:18;;;;;;;6.15;3.30;;;;;;;12.23;100.00;101202.44;6099979;19;20034;-73
2023/08/28 03:51:23;;;;;;;4.75;2.88;;;;;;;12.24;100.00;101198.91;6097423;19;20006;-74
2023/08/28 03:53:33;;;;;;;4.70;2.78;;;;;;;12.27;100.00;101204.03;6094861;19;20480;-73
2023/08/28 03:55:38;;;;;;;4.65;2.97;;;;;;;12.30;100.00;101203.91;6095470;19;20471;-72
2023/08/28 03:57:43;;;;;;;7.55;2.83;;;;;;;12.33;100.00;101200.28;6096841;19;20025;-74
2023/08/28 03:59:48;;;;;;;5.13;2.60;;;;;;;12.32;100.00;101206.44;6099236;19;21260;-73
2023/08/28 04:01:58;;;;;;;4.13;2.50;;;;;;;12.39;100.00;101207.91;6098741;19;20002;-74
2023/08/28 04:04:00;;;;;;;4.75;2.72;;;;;;;12.42;100.00;101222.75;6098061;19;20090;-73
2023/08/28 04:06:06;;;;;;;5.80;3.25;;;;;;;12.44;100.00;101216.50;6095781;19;20025;-74
2023/08/28 04:08:11;;;;;;;4.72;2.90;;;;;;;12.46;100.00;101216.44;6097539;19;20011;-74
2023/08/28 04:10:16;;;;;;;5.55;2.70;;;;;;;12.47;100.00;101216.34;6095330;19;20002;-72
2023/08/28 04:12:21;;;;;;;4.25;2.80;;;;;;;12.47;100.00;101218.97;6097122;19;20010;-74
2023/08/28 04:14:29;;;;;;;6.32;2.95;;;;;;;12.53;100.00;101220.50;6099952;19;20030;-73
2023/08/28 04:16:35;;;;;;;8.10;3.25;;;;;;;12.49;100.00;101218.94;6094209;19;20074;-73
2023/08/28 04:18:40;;;;;;;4.43;2.58;;;;;;;12.46;100.00;101219.91;6096793;19;20010;-74
2023/08/28 04:20:46;;;;;;;5.18;2.60;;;;;;;12.49;100.00;101219.78;6097327;19;20479;-74
2023/08/28 04:22:51;;;;;;;5.18;2.47;;;;;;;12.50;100.00;101226.75;6093572;19;20015;-74
2023/08/28 04:25:00;;;;;;;7.38;3.00;;;;;;;12.54;100.00;101227.50;6099297;19;20007;-73
2023/08/28 04:27:08;;;;;;;6.75;3.00;;;;;;;12.56;100.00;101237.97;6094500;19;20619;-73
2023/08/28 04:29:13;;;;;;;7.10;3.65;;;;;;;12.57;100.00;101244.97;6093554;19;20057;-74
2023/08/28 04:31:19;;;;;;;6.43;3.05;;;;;;;12.63;100.00;101237.66;6095249;19;20007;-74
2023/08/28 04:33:25;;;;;;;6.40;3.63;;;;;;;12.65;100.00;101230.53;6096620;19;20033;-75
2023/08/28 04:35:30;;;;;;;5.93;3.55;;;;;;;12.61;100.00;101239.50;6095991;19;20399;-73
2023/08/28 04:37:35;;;;;;;8.73;3.80;;;;;;;12.63;100.00;101247.34;6097630;19;20010;-73
2023/08/28 04:39:40;;;;;;;8.88;3.70;;;;;;;12.58;100.00;101236.97;6094522;19;20011;-74
2023/08/28 04:41:57;;;;;;;9.98;4.60;;;;;;;12.59;100.00;101241.34;6096901;19;20010;-73
2023/08/28 04:44:11;;;;;;;7.72;4.15;;;;;;;12.52;100.00;101239.88;6078225;19;20503;-74
2023/08/28 04:46:16;;;;;;;5.03;3.00;;;;;;;12.48;100.00;101244.44;6093602;19;20010;-68
2023/08/28 04:48:21;;;;;;;4.95;2.80;;;;;;;12.48;100.00;101248.84;6095096;19;20002;-69
2023/08/28 04:50:27;;;;;;;6.97;3.15;;;;;;;12.50;100.00;101255.75;6095694;19;20463;-69
2023/08/28 04:52:32;;;;;;;5.82;2.97;;;;;;;12.50;100.00;101263.66;6096640;19;20431;-69
2023/08/28 04:54:37;;;;;;;6.65;3.20;;;;;;;12.48;100.00;101267.28;6097137;19;20007;-68
2023/08/28 04:56:42;;;;;;;5.88;3.03;;;;;;;12.48;100.00;101270.81;6097876;19;20014;-68
2023/08/28 04:58:47;;;;;;;6.18;3.38;;;;;;;12.46;100.00;101267.38;6096239;19;20011;-68
2023/08/28 05:00:55;;;;;;;5.68;2.97;;;;;;;12.49;100.00;101271.66;6096095;19;20431;-69
2023/08/28 05:03:00;;;;;;;6.78;3.53;;;;;;;12.50;100.00;101274.22;6092831;19;20089;-69
2023/08/28 05:05:06;;;;;;;7.88;3.13;;;;;;;12.50;100.00;101276.84;6098288;19;20019;-69
2023/08/28 05:07:11;;;;;;;6.38;2.58;;;;;;;12.48;100.00;101272.56;6096942;19;20039;-68
2023/08/28 05:09:17;;;;;;;5.32;3.00;;;;;;;12.51;100.00;101273.31;6096814;19;20010;-69
2023/08/28 05:11:22;;;;;;;4.10;2.40;;;;;;;12.56;100.00;101282.78;6094911;19;20090;-68
2023/08/28 05:13:28;;;;;;;5.00;2.72;;;;;;;12.58;100.00;101276.53;6096797;19;21237;-69
2023/08/28 05:15:37;;;;;;;5.20;3.08;;;;;;;12.62;100.00;101282.56;6095512;19;20006;-69
2023/08/28 05:17:44;;;;;;;5.30;2.63;;;;;;;12.69;100.00;101278.72;6094245;19;20010;-69
2023/08/28 05:19:49;;;;;;;6.10;3.28;;;;;;;12.79;100.00;101277.41;6096157;19;20010;-69
2023/08/28 05:21:57;;;;;;;5.78;3.50;;;;;;;12.80;100.00;101275.66;6096533;19;20145;-69
2023/08/28 05:24:02;;;;;;;6.18;3.53;;;;;;;12.85;100.00;101276.28;6094573;19;21275;-70
2023/08/28 05:26:08;;;;;;;5.03;2.80;;;;;;;12.91;100.00;101281.31;6092045;19;20460;-68
2023/08/28 05:28:12;;;;;;;6.78;3.05;;;;;;;12.96;100.00;101279.31;6095133;19;20706;-69
2023/08/28 05:30:17;;;;;;;6.05;3.30;;;;;;;13.08;100.00;101278.78;6094936;19;19999;-69
2023/08/28 05:32:22;;;;;;;7.82;3.55;;;;;;;13.22;100.00;101280.81;6093207;19;20002;-71
2023/08/28 05:34:32;;;;;;;5.65;3.20;;;;;;;13.38;100.00;101281.88;6094198;19;20024;-69
2023/08/28 05:36:37;;;;;;;8.13;3.95;;;;;;;13.44;100.00;101278.09;6093886;19;20009;-71
2023/08/28 05:38:42;;;;;;;9.30;4.40;;;;;;;13.48;100.00;101273.53;6096482;19;20002;-69
2023/08/28 05:40:47;;;;;;;8.50;3.83;;;;;;;13.49;100.00;101270.84;6093835;19;20066;-71
2023/08/28 05:42:52;;;;;;;9.27;3.97;;;;;;;13.51;100.00;101271.63;6092858;19;20010;-69
2023/08/28 05:45:00;;;;;;;8.50;3.92;;;;;;;13.53;100.00;101276.81;6091520;19;19999;-69
2023/08/28 05:47:05;;;;;;;7.18;3.45;;;;;;;13.55;100.00;101275.81;6093188;19;20184;-68
2023/08/28 05:49:10;;;;;;;6.55;3.65;;;;;;;13.60;100.00;101279.09;6093309;19;20020;-68
2023/08/28 05:51:17;;;;;;;6.60;3.67;;;;;;;13.66;100.00;101275.31;6094332;19;20030;-69
2023/08/28 05:53:22;;;;;;;7.60;3.75;;;;;;;13.70;100.00;101273.41;6087796;19;20010;-69
2023/08/28 05:55:30;;;;;;;6.40;3.47;;;;;;;13.78;100.00;101274.75;6087023;19;20011;-68
2023/08/28 05:57:35;;;;;;;7.65;3.92;;;;;;;13.84;100.00;101273.59;6088169;19;20018;-68
2023/08/28 05:59:40;;;;;;;7.38;3.60;;;;;;;13.88;100.00;101267.25;6093671;19;20010;-69
2023/08/28 06:01:50;;;;;;;6.03;3.83;;;;;;;13.92;100.00;101262.69;6094441;19;20006;-68
2023/08/28 06:03:56;;;;;;;7.80;3.85;;;;;;;13.96;100.00;101265.13;6091113;19;20006;-69
2023/08/28 06:06:01;;;;;;;5.20;3.30;;;;;;;14.00;100.00;101264.03;6086648;19;20086;-70
2023/08/28 06:08:09;;;;;;;7.45;4.25;;;;;;;14.01;100.00;101267.53;6088564;19;20423;-68
2023/08/28 06:10:18;;;;;;;7.72;3.60;;;;;;;14.05;100.00;101277.00;6090941;19;20614;-69
2023/08/28 06:12:25;;;;;;;6.63;3.60;;;;;;;14.07;100.00;101264.59;6093742;19;20027;-70
2023/08/28 06:14:32;;;;;;;8.05;4.18;;;;;;;14.09;100.00;101275.97;6092968;19;20310;-69
2023/08/28 06:16:37;;;;;;;5.82;3.17;;;;;;;14.16;100.00;101268.56;6093228;19;20003;-68
2023/08/28 06:18:40;;;;;;;7.10;3.58;;;;;;;14.22;100.00;101263.00;6094173;19;20763;-70
2023/08/28 06:20:47;;;;;;;6.20;3.30;;;;;;;14.26;100.00;101261.91;6095555;19;20555;-69
2023/08/28 06:22:53;;;;;;;8.30;3.88;;;;;;;14.31;100.00;101262.53;6093453;19;20011;-68
2023/08/28 06:25:03;;;;;;;7.53;3.95;;;;;;;14.36;100.00;101268.44;6094195;19;20002;-69
2023/08/28 06:27:08;;;;;;;8.38;3.83;;;;;;;14.43;100.00;101277.81;6093271;19;20002;-68
2023/08/28 06:29:10;;;;;;;7.35;4.30;;;;;;;14.47;100.00;101271.41;6096095;19;20094;-69
2023/08/28 06:31:15;;;;;;;6.72;3.63;;;;;;;14.53;100.00;101272.06;6095766;19;20106;-69
2023/08/28 06:33:20;;;;;;;6.10;3.53;;;;;;;14.58;100.00;101268.25;6094181;19;20011;-70
2023/08/28 06:35:25;;;;;;;6.78;3.70;;;;;;;14.67;100.00;101274.91;6094668;19;20015;-70
2023/08/28 06:40:25;;;;;;;6.88;3.80;;;;;;;14.89;100.00;101274.66;6096711;19;20011;-69
2023/08/28 06:42:28;;;;;;;7.47;3.63;;;;;;;14.95;100.00;101276.13;6072985;19;20858;-70
2023/08/28 06:44:40;;;;;;;6.45;3.53;;;;;;;15.03;100.00;101273.91;6096847;19;20482;-70
2023/08/28 06:46:45;;;;;;;7.15;4.00;;;;;;;15.06;100.00;101273.75;6094614;19;21356;-69
2023/08/28 06:48:52;;;;;;;6.47;3.83;;;;;;;15.10;100.00;101272.66;6096514;19;20002;-69
2023/08/28 06:51:00;;;;;;;8.57;3.83;;;;;;;15.20;100.00;101276.56;6073906;19;20044;-69
2023/08/28 06:53:08;;;;;;;7.82;3.90;;;;;;;15.24;100.00;101277.22;6090010;19;20006;-69
2023/08/28 06:55:13;;;;;;;8.07;3.90;;;;;;;15.35;100.00;101285.47;6094830;19;20581;-68
2023/08/28 06:57:21;;;;;;;5.55;3.38;;;;;;;15.46;100.00;101283.09;6091507;19;20093;-68
2023/08/28 06:59:25;;;;;;;6.72;3.65;;;;;;;15.56;100.00;101278.16;6099050;19;20529;-68
2023/08/28 07:01:31;;;;;;;5.28;2.90;;;;;;;15.70;100.00;101278.28;6099478;19;20053;-70
2023/08/28 07:03:36;;;;;;;6.97;3.60;;;;;;;15.80;100.00;101279.50;6102702;19;20448;-68
2023/08/28 07:05:42;;;;;;;7.00;3.75;;;;;;;16.09;100.00;101284.97;6101548;19;20414;-69
2023/08/28 07:07:47;;;;;;;8.32;4.20;;;;;;;16.40;100.00;101283.19;6101730;19;20022;-69
2023/08/28 07:09:52;;;;;;;8.02;4.40;;;;;;;16.89;100.00;101283.00;6104394;19;20032;-69
2023/08/28 07:11:58;;;;;;;8.23;4.22;;;;;;;16.95;100.00;101284.44;6097452;19;20006;-68
2023/08/28 07:14:08;;;;;;;6.78;4.15;;;;;;;16.84;100.00;101288.59;6102920;19;20043;-68
2023/08/28 07:16:13;;;;;;;7.28;4.20;;;;;;;16.92;100.00;101277.50;6101198;19;20023;-68
2023/08/28 07:18:22;;;;;;;6.80;4.40;;;;;;;17.59;100.00;101284.94;6096667;19;20006;-68
2023/08/28 07:20:29;;;;;;;7.60;4.13;;;;;;;17.94;100.00;101283.59;6096513;19;19995;-69
2023/08/28 07:22:34;;;;;;;6.68;3.90;;;;;;;18.34;100.00;101286.31;6098399;19;20006;-69
2023/08/28 07:24:39;;;;;;;7.80;3.90;;;;;;;18.61;100.00;101283.59;6100327;19;20040;-70
2023/08/28 07:26:56;;;;;;;6.70;3.75;;;;;;;19.00;96.74;101283.69;6094873;19;20014;-69
2023/08/28 07:29:02;;;;;;;8.88;4.15;;;;;;;18.74;98.45;101288.09;6096050;19;20010;-74
2023/08/28 07:31:07;;;;;;;6.53;3.97;;;;;;;19.18;100.00;101285.09;6099924;19;20080;-73
2023/08/28 07:33:12;;;;;;;7.93;3.78;;;;;;;19.38;95.62;101289.03;6098155;19;20035;-74
2023/08/28 07:35:17;;;;;;;6.88;3.45;;;;;;;19.82;96.78;101286.84;6097381;19;20010;-75
2023/08/28 07:37:24;;;;;;;6.03;2.75;;;;;;;19.99;91.33;101278.47;6101900;19;20530;-74
2023/08/28 07:39:29;;;;;;;5.25;3.20;;;;;;;20.23;88.95;101291.81;6096843;19;20078;-74
2023/08/28 07:41:34;;;;;;;5.68;2.90;;;;;;;20.34;85.18;101288.34;6099800;19;20699;-74
2023/08/28 07:43:39;;;;;;;4.68;2.60;;;;;;;19.94;90.07;101286.81;6098170;19;20021;-74
2023/08/28 07:45:44;;;;;;;4.65;2.78;;;;;;;20.24;91.25;101282.00;6098749;19;20043;-75
2023/08/28 07:47:55;;;;;;;5.57;2.92;;;;;;;20.69;89.91;101288.38;6098525;19;21408;-75
2023/08/28 07:50:00;;;;;;;4.25;2.95;;;;;;;20.55;86.41;101289.44;6096501;19;20006;-73
2023/08/28 07:52:06;;;;;;;6.18;3.25;;;;;;;20.60;86.71;101287.28;6095621;19;20017;-75
2023/08/28 07:54:11;;;;;;;1.70;1.60;;;;;;;20.14;83.80;101289.81;6094604;19;20032;-75
2023/08/28 07:56:16;;;;;;;3.22;1.92;;;;;;;19.78;83.08;101294.22;6094307;19;20014;-76
2023/08/28 07:58:21;;;;;;;3.28;2.15;;;;;;;19.53;87.43;101293.25;6096620;19;20535;-73
2023/08/28 08:00:34;;;;;;;5.13;2.50;;;;;;;19.51;85.38;101295.19;6097652;19;20011;-73
2023/08/28 08:02:37;;;;;;;4.15;2.72;;;;;;;19.23;85.51;101301.59;6095211;19;20007;-73
2023/08/28 08:04:45;;;;;;;3.85;2.30;;;;;;;18.89;85.95;101297.75;6094542;19;20263;-73
2023/08/28 08:06:50;;;;;;;4.82;2.58;;;;;;;19.28;85.47;101302.13;6096581;19;20039;-74
2023/08/28 08:08:55;;;;;;;4.25;2.60;;;;;;;19.57;85.32;101301.06;6098987;19;20039;-72
2023/08/28 08:11:01;;;;;;;3.85;2.30;;;;;;;19.21;86.06;101297.34;6094535;19;20064;-74
2023/08/28 08:13:06;;;;;;;3.60;2.50;;;;;;;18.78;85.46;101301.16;6097176;19;20436;-72
2023/08/28 08:15:10;;;;;;;4.68;2.50;;;;;;;19.67;86.33;101305.66;6097686;19;20007;-75
2023/08/28 08:17:15;;;;;;;4.30;2.45;;;;;;;19.79;84.17;101298.56;6097512;19;20523;-72
2023/08/28 08:19:20;;;;;;;4.32;2.20;;;;;;;19.45;86.17;101308.09;6097766;19;20035;-73
2023/08/28 08:21:28;;;;;;;3.28;1.90;;;;;;;19.35;86.45;101302.53;6100392;19;20036;-74
2023/08/28 08:23:35;;;;;;;1.77;1.40;;;;;;;19.08;85.82;101308.00;6098135;19;20296;-73
2023/08/28 08:25:41;;;;;;;2.33;1.58;;;;;;;19.06;84.85;101309.91;6097949;19;20024;-73
2023/08/28 08:27:47;;;;;;;2.67;1.58;;;;;;;20.22;81.78;101306.16;6097624;19;20031;-73
2023/08/28 08:29:52;;;;;;;2.28;1.80;;;;;;;20.42;80.47;101306.47;6099152;19;20002;-73
2023/08/28 08:31:58;;;;;;;3.03;1.80;;;;;;;21.07;77.50;101302.47;6098200;19;20006;-72
2023/08/28 08:34:03;;;;;;;2.35;1.63;;;;;;;20.47;73.64;101298.97;6097515;19;20068;-73
2023/08/28 08:36:08;;;;;;;2.70;1.67;;;;;;;20.12;76.24;101305.97;6095464;19;20032;-74
2023/08/28 08:38:16;;;;;;;2.70;1.83;;;;;;;19.56;80.01;101302.00;6097939;19;20451;-72
2023/08/28 08:40:26;;;;;;;6.38;1.90;;;;;;;19.58;81.72;101303.59;6096661;19;20035;-72
2023/08/28 08:42:31;;;;;;;3.55;1.90;;;;;;;19.08;82.48;101308.00;6098544;19;20036;-73
2023/08/28 08:44:36;;;;;;;3.80;1.88;;;;;;;18.87;83.95;101307.66;6098099;19;20076;-72
2023/08/28 08:46:44;;;;;;;3.08;1.88;;;;;;;18.66;83.49;101312.56;6097965;19;20002;-74
2023/08/28 08:48:53;;;;;;;2.95;1.90;;;;;;;19.01;83.38;101312.91;6096273;19;20014;-73
2023/08/28 08:51:05;;;;;;;3.85;1.70;;;;;;;19.99;76.47;101310.47;6098531;19;20803;-73
2023/08/28 08:53:15;;;;;;;4.22;1.92;;;;;;;20.73;75.30;101310.38;6092578;19;20010;-73
2023/08/28 08:55:41;;;;;;;5.75;1.60;;;;;;;20.43;72.27;101306.34;6095328;19;20075;-72
2023/08/28 08:57:52;;;;;;;3.42;1.38;;;;;;;20.30;72.17;101308.22;6096706;19;20567;-73
2023/08/28 08:59:59;;;;;;;3.10;1.45;;;;;;;20.53;71.74;101311.84;6092866;19;20479;-74
2023/08/28 09:02:05;;;;;;;3.15;1.30;;;;;;;20.94;70.96;101310.56;6096171;19;20039;-74
2023/08/28 09:04:12;;;;;;;2.30;1.50;;;;;;;20.42;68.72;101306.47;6096552;19;20534;-72
2023/08/28 09:06:17;;;;;;;2.60;1.15;;;;;;;20.16;68.00;101315.41;6092259;19;20467;-72
2023/08/28 09:08:24;;;;;;;1.80;1.70;;;;;;;20.37;67.54;101304.13;6097814;19;20395;-73
2023/08/28 09:13:00;;;;;;;2.92;1.48;;;;;;;21.52;67.16;101294.50;6123733;19;20881;-73
2023/08/28 09:15:06;;;;;;;3.63;1.60;;;;;;;21.88;68.29;101296.03;6122935;19;20006;-73
2023/08/28 09:17:11;;;;;;;2.78;1.40;;;;;;;21.94;64.91;101292.88;6123359;19;20003;-72
2023/08/28 09:19:17;;;;;;;1.50;1.40;;;;;;;21.35;67.06;101296.63;6122753;19;20007;-72
2023/08/28 09:21:22;;;;;;;1.77;1.30;;;;;;;21.68;67.88;101297.66;6122584;19;20007;-71
2023/08/28 09:23:34;;;;;;;2.50;1.20;;;;;;;22.13;65.34;101302.94;6122926;19;20031;-72
2023/08/28 09:25:41;;;;;;;1.45;1.35;;;;;;;21.98;63.03;101297.00;6121186;19;20033;-72
2023/08/28 09:27:44;;;;;;;2.65;1.70;;;;;;;21.82;62.18;101299.22;6089290;19;20007;-73
2023/08/28 09:29:53;;;;;;;1.95;1.30;;;;;;;22.02;64.23;101306.47;6124551;19;20073;-72
2023/08/28 09:32:04;;;;;;;3.70;1.42;;;;;;;22.87;61.68;101302.16;6122619;19;20056;-73
2023/08/28 09:34:09;;;;;;;3.08;1.40;;;;;;;22.69;58.16;101300.06;6123534;19;20005;-71
2023/08/28 09:36:18;;;;;;;2.08;1.10;;;;;;;22.95;59.19;101305.03;6120354;19;20002;-71
2023/08/28 09:38:23;;;;;;;2.17;1.40;;;;;;;23.39;57.77;101300.38;6121942;19;20015;-73
2023/08/28 09:40:27;;;;;;;1.65;1.10;;;;;;;23.45;58.03;101297.16;6122983;19;19999;-71
2023/08/28 09:42:32;;;;;;;3.22;1.48;;;;;;;23.93;57.09;101293.78;6125198;19;20370;-71
2023/08/28 09:44:37;;;;;;;1.33;1.20;;;;;;;23.31;55.66;101303.72;6123113;19;20002;-72
2023/08/28 09:46:44;;;;;;;1.25;0.80;;;;;;;23.64;56.89;101297.25;6124254;19;20010;-73
2023/08/28 09:48:49;;;;;;;1.63;1.08;;;;;;;23.81;55.99;101295.75;6122421;19;20658;-72